Vail, Washington
Current Conditions -  °F | °C
As of 11:54 AM on Saturday 20 Dec 2014 (Local Time) from KOLM Reporting Station
Light Rain Light Rain  
Wind Chill: 44°   Ceiling: 900
Heat Index: 49°   Visibility: 2.5mi
Dew Point: 46°   Wind: 12mph
Humidity: 90%   Direction: 200°SSW
Pressure: 29.57"   Gusts: 18mph
Location:  46.8214°N, 122.662°W
Report Text: KOLM 201954Z 20010G16KT 2 1/2SM -RA BR BKN009 OVC016 09/08 A2957 RMK AO2 SLP015 P0011 T00940078
Loading
Personal Weather Stations






























Interactive Weather Map New forecast layout! Learn more

10-Day Weather Forecast

Advertisements
Track Severe Weather on mobile